createdAt,value
2023-02-23T00:02:39.947Z,8.38
2023-02-23T00:05:43.325Z,10.48
2023-02-23T00:08:48.022Z,9.60
2023-02-23T00:11:51.664Z,12.13
2023-02-23T00:14:55.022Z,11.75
2023-02-23T00:17:59.696Z,6.32
2023-02-23T00:21:03.185Z,8.52
2023-02-23T00:24:08.246Z,9.75
2023-02-23T00:27:17.369Z,9.88
2023-02-23T00:30:21.911Z,5.85
2023-02-23T00:33:26.598Z,6.90
2023-02-23T00:36:33.351Z,9.93
2023-02-23T00:39:36.783Z,9.02
2023-02-23T00:42:40.386Z,8.63
2023-02-23T00:45:43.848Z,9.52
2023-02-23T00:48:49.263Z,7.70
2023-02-23T00:51:54.055Z,10.93
2023-02-23T00:54:57.429Z,8.57
2023-02-23T00:58:00.781Z,11.80
2023-02-23T01:01:04.557Z,6.68
2023-02-23T01:04:09.489Z,14.73
2023-02-23T01:07:13.032Z,6.13
2023-02-23T01:10:23.590Z,8.65
2023-02-23T01:13:27.941Z,7.90
2023-02-23T01:16:32.410Z,4.70
2023-02-23T01:19:37.090Z,13.82
2023-02-23T01:22:40.762Z,10.48
2023-02-23T01:25:45.325Z,14.10
2023-02-23T01:28:50.411Z,10.68
2023-02-23T01:31:54.774Z,11.75
2023-02-23T01:35:00.530Z,13.75
2023-02-23T01:38:04.642Z,8.70
2023-02-23T01:41:09.007Z,10.75
2023-02-23T01:44:27.267Z,13.07
2023-02-23T01:47:32.425Z,9.25
2023-02-23T01:50:41.695Z,9.35
2023-02-23T01:53:46.508Z,9.10
2023-02-23T01:56:57.896Z,9.20
2023-02-23T02:00:01.483Z,6.85
2023-02-23T02:03:19.718Z,10.43
2023-02-23T02:06:28.631Z,11.80
2023-02-23T02:09:37.862Z,11.38
2023-02-23T02:12:41.748Z,11.88
2023-02-23T02:15:53.725Z,8.23
2023-02-23T02:19:03.190Z,10.10
2023-02-23T02:22:25.700Z,7.15
2023-02-23T02:25:45.568Z,13.25
2023-02-23T02:29:06.132Z,10.60
2023-02-23T02:32:24.162Z,6.85
2023-02-23T02:35:38.754Z,11.02
2023-02-23T02:38:53.316Z,6.70
2023-02-23T02:42:00.660Z,9.45
2023-02-23T02:45:08.553Z,7.55
2023-02-23T02:48:18.768Z,6.90
2023-02-23T02:51:26.039Z,8.13
2023-02-23T02:54:32.958Z,8.30
2023-02-23T02:57:36.341Z,14.75
2023-02-23T03:00:57.833Z,10.00
2023-02-23T03:04:20.209Z,6.10
2023-02-23T03:07:46.237Z,10.63
2023-02-23T03:11:14.951Z,9.63
2023-02-23T03:14:41.057Z,13.15
2023-02-23T03:18:05.727Z,5.40
2023-02-23T03:21:32.023Z,10.93
2023-02-23T03:24:57.571Z,10.00
2023-02-23T03:28:23.343Z,7.03
2023-02-23T03:31:47.344Z,5.60
2023-02-23T03:35:12.828Z,7.25
2023-02-23T03:38:36.699Z,7.30
2023-02-23T03:41:59.660Z,12.32
2023-02-23T03:45:27.105Z,11.27
2023-02-23T03:48:49.223Z,11.77
2023-02-23T03:52:13.146Z,6.25
2023-02-23T03:55:36.351Z,7.90
2023-02-23T03:58:58.818Z,7.18
2023-02-23T04:02:22.069Z,10.27
2023-02-23T04:05:43.188Z,12.48
2023-02-23T04:09:04.595Z,9.00
2023-02-23T04:12:28.782Z,6.22
2023-02-23T04:15:33.641Z,14.32
2023-02-23T04:18:39.649Z,10.27
2023-02-23T04:21:43.089Z,7.20
2023-02-23T04:24:46.989Z,10.32
2023-02-23T04:27:50.384Z,11.05
2023-02-23T04:30:54.069Z,8.27
2023-02-23T04:33:58.851Z,5.75
2023-02-23T04:37:02.304Z,7.70
2023-02-23T04:40:05.941Z,8.40
2023-02-23T04:43:09.422Z,15.63
2023-02-23T04:46:12.969Z,10.40
2023-02-23T04:49:17.752Z,14.90
2023-02-23T04:52:21.224Z,12.52
2023-02-23T04:55:25.594Z,12.23
2023-02-23T04:58:29.118Z,11.95
2023-02-23T05:01:32.852Z,12.85
2023-02-23T05:04:37.552Z,11.73
2023-02-23T05:07:41.062Z,17.85
2023-02-23T05:10:44.541Z,17.33
2023-02-23T05:13:47.877Z,19.08
2023-02-23T05:16:51.226Z,25.45
2023-02-23T05:19:56.177Z,19.70
2023-02-23T05:22:59.712Z,17.45
2023-02-23T05:26:06.172Z,15.80
2023-02-23T05:29:09.621Z,17.80
2023-02-23T05:32:13.114Z,19.02
2023-02-23T05:35:17.945Z,24.67
2023-02-23T05:38:21.348Z,31.52
2023-02-23T05:41:25.195Z,17.88
2023-02-23T05:44:28.876Z,15.73
2023-02-23T05:47:33.227Z,18.17
2023-02-23T05:50:38.057Z,18.55
2023-02-23T05:53:41.364Z,19.85
2023-02-23T05:56:44.918Z,20.23
2023-02-23T05:59:48.267Z,24.17
2023-02-23T06:02:53.719Z,18.50
2023-02-23T06:05:59.542Z,16.90
2023-02-23T06:09:03.260Z,21.65
2023-02-23T06:12:06.770Z,18.88
2023-02-23T06:15:10.370Z,19.40
2023-02-23T06:18:13.681Z,18.08
2023-02-23T06:21:19.682Z,16.83
2023-02-23T06:24:23.797Z,20.75
2023-02-23T06:27:27.419Z,14.85
2023-02-23T06:30:30.857Z,20.55
2023-02-23T06:33:34.295Z,17.67
2023-02-23T06:36:39.322Z,22.73
2023-02-23T06:39:42.806Z,15.55
2023-02-23T06:42:46.249Z,20.48
2023-02-23T06:45:49.633Z,18.98
2023-02-23T06:48:57.508Z,13.07
2023-02-23T06:52:02.913Z,17.98
2023-02-23T06:55:06.884Z,19.60
2023-02-23T06:58:10.374Z,19.67
2023-02-23T07:01:13.835Z,17.48
2023-02-23T07:04:17.298Z,23.48
2023-02-23T07:07:24.794Z,20.23
2023-02-23T07:10:29.103Z,25.55
2023-02-23T07:13:32.638Z,20.55
2023-02-23T07:16:36.735Z,25.60
2023-02-23T07:19:40.260Z,27.08
2023-02-23T07:22:45.134Z,21.23
2023-02-23T07:25:49.059Z,20.98
2023-02-23T07:28:54.179Z,28.95
2023-02-23T07:32:02.245Z,19.58
2023-02-23T07:35:06.309Z,24.73
2023-02-23T07:38:11.357Z,24.58
2023-02-23T07:41:14.854Z,24.52
2023-02-23T07:44:18.175Z,22.73
2023-02-23T07:47:22.621Z,22.83
2023-02-23T07:50:26.328Z,24.60
2023-02-23T07:53:34.375Z,26.67
2023-02-23T07:56:38.485Z,27.48
2023-02-23T07:59:42.465Z,24.20
2023-02-23T08:02:49.290Z,27.13
2023-02-23T08:05:52.701Z,40.58
2023-02-23T08:08:59.269Z,36.80
2023-02-23T08:12:11.644Z,32.78
2023-02-23T08:15:15.620Z,30.55
2023-02-23T08:18:19.196Z,39.58
2023-02-23T08:21:29.708Z,34.63
2023-02-23T08:24:37.358Z,37.35
2023-02-23T08:27:44.276Z,44.45
2023-02-23T08:30:52.298Z,45.00
2023-02-23T08:34:09.420Z,44.75
2023-02-23T08:37:13.199Z,46.78
2023-02-23T08:40:18.321Z,51.85
2023-02-23T08:43:21.767Z,37.45
2023-02-23T08:46:31.174Z,42.22
2023-02-23T08:49:35.512Z,47.53
2023-02-23T08:52:38.981Z,39.83
2023-02-23T08:55:49.071Z,44.78
2023-02-23T08:59:00.319Z,36.38
2023-02-23T09:02:04.199Z,46.15
2023-02-23T09:05:08.166Z,40.80
2023-02-23T09:08:15.841Z,48.35
2023-02-23T09:11:28.761Z,53.88
2023-02-23T09:14:32.443Z,47.28
2023-02-23T09:17:45.190Z,44.22
2023-02-23T09:20:52.888Z,39.85
2023-02-23T09:24:14.553Z,47.03
2023-02-23T09:27:44.100Z,44.88
2023-02-23T09:30:49.523Z,45.17
2023-02-23T09:33:53.694Z,29.92
2023-02-23T09:37:33.624Z,34.35
2023-02-23T09:41:15.308Z,36.65
2023-02-23T09:44:51.130Z,39.17
2023-02-23T09:49:17.658Z,32.28
2023-02-23T09:52:44.667Z,29.55
2023-02-23T09:55:50.275Z,38.08
2023-02-23T09:59:22.069Z,29.90
2023-02-23T10:02:39.619Z,34.33
2023-02-23T10:05:49.758Z,35.05
2023-02-23T10:09:10.455Z,36.03
2023-02-23T10:12:22.210Z,28.08
2023-02-23T10:15:29.296Z,35.80
2023-02-23T10:19:13.797Z,27.38
2023-02-23T10:22:26.552Z,24.23
2023-02-23T10:25:33.005Z,26.40
2023-02-23T10:28:39.014Z,22.77
2023-02-23T10:32:03.201Z,20.95
2023-02-23T10:43:26.209Z,24.05
2023-02-23T10:46:33.367Z,19.05
2023-02-23T10:50:09.417Z,26.08
2023-02-23T10:53:17.764Z,33.85
2023-02-23T10:56:49.496Z,22.38
2023-02-23T11:00:27.597Z,40.00
2023-02-23T11:03:46.906Z,43.47
2023-02-23T11:07:34.088Z,38.17
2023-02-23T11:10:51.613Z,38.55
2023-02-23T11:13:55.277Z,43.03
2023-02-23T11:17:27.636Z,39.83
2023-02-23T11:20:35.876Z,40.38
2023-02-23T11:23:43.262Z,46.75
2023-02-23T11:26:47.600Z,52.05
2023-02-23T11:29:56.460Z,44.00
2023-02-23T11:33:11.061Z,50.80
2023-02-23T11:36:18.099Z,52.42
2023-02-23T11:39:23.413Z,54.90
2023-02-23T11:42:27.669Z,62.13
2023-02-23T11:46:00.474Z,59.78
2023-02-23T11:49:11.444Z,63.63
2023-02-23T11:52:18.615Z,68.90
2023-02-23T11:55:25.853Z,73.90
2023-02-23T11:58:36.656Z,53.70
2023-02-23T12:01:46.916Z,63.67
2023-02-23T12:05:06.521Z,66.93
2023-02-23T12:08:27.477Z,55.22
2023-02-23T12:16:23.452Z,66.40
2023-02-23T12:19:31.613Z,77.57
2023-02-23T12:22:47.822Z,70.82
2023-02-23T12:25:59.582Z,62.53
2023-02-23T12:29:06.389Z,68.70
2023-02-23T12:32:36.905Z,70.13
2023-02-23T12:36:29.243Z,58.20
2023-02-23T12:39:50.036Z,62.88
2023-02-23T12:43:19.224Z,62.22
2023-02-23T12:46:34.278Z,57.58
2023-02-23T12:49:39.726Z,67.88
2023-02-23T12:52:49.535Z,65.78
2023-02-23T12:56:48.906Z,67.53
2023-02-23T13:00:24.681Z,61.58
2023-02-23T13:03:51.565Z,62.65
2023-02-23T13:06:59.671Z,74.63
2023-02-23T13:10:07.677Z,62.10
2023-02-23T13:13:18.972Z,67.25
2023-02-23T13:16:25.640Z,60.10
2023-02-23T13:19:34.127Z,57.03
2023-02-23T13:22:48.094Z,63.45
2023-02-23T13:25:56.874Z,58.35
2023-02-23T13:29:03.834Z,50.90
2023-02-23T13:32:13.799Z,59.80
2023-02-23T13:35:18.913Z,54.65
2023-02-23T13:38:29.901Z,47.63
2023-02-23T13:41:46.419Z,55.83
2023-02-23T13:44:56.890Z,83.65
2023-02-23T13:48:05.605Z,65.18
2023-02-23T13:51:21.832Z,60.72
2023-02-23T13:54:29.519Z,61.17
2023-02-23T14:01:08.404Z,60.75
2023-02-23T14:04:15.695Z,60.90
2023-02-23T14:07:25.547Z,54.88
2023-02-23T14:14:49.131Z,54.78
2023-02-23T14:22:15.616Z,44.95
2023-02-23T14:25:37.698Z,47.72
2023-02-23T14:28:42.103Z,52.83
2023-02-23T14:31:56.473Z,50.22
2023-02-23T14:35:29.227Z,43.20
2023-02-23T14:38:48.531Z,40.78
2023-02-23T14:41:52.792Z,38.13
2023-02-23T14:44:56.793Z,47.08
2023-02-23T14:48:11.610Z,46.22
2023-02-23T14:51:24.078Z,45.90
2023-02-23T14:54:38.083Z,38.00
2023-02-23T14:57:45.593Z,45.17
2023-02-23T15:00:51.985Z,41.25
2023-02-23T15:04:08.058Z,38.67
2023-02-23T15:07:18.501Z,42.15
2023-02-23T15:10:24.353Z,38.97
2023-02-23T15:13:33.191Z,39.60
2023-02-23T15:16:42.716Z,36.25
2023-02-23T15:19:48.521Z,36.28
2023-02-23T15:22:55.126Z,42.33
2023-02-23T15:25:58.609Z,38.03
2023-02-23T15:29:09.116Z,47.88
2023-02-23T15:32:15.733Z,35.60
2023-02-23T15:35:20.630Z,33.83
2023-02-23T15:38:42.208Z,30.75
2023-02-23T15:41:48.363Z,36.95
2023-02-23T15:44:56.747Z,40.50
2023-02-23T15:48:01.719Z,30.23
2023-02-23T15:51:07.463Z,29.17
2023-02-23T15:54:15.530Z,36.05
2023-02-23T15:57:22.723Z,32.85
2023-02-23T16:00:32.961Z,30.00
2023-02-23T16:03:37.788Z,24.13
2023-02-23T16:06:50.650Z,23.08
2023-02-23T16:09:54.893Z,27.45
2023-02-23T16:12:58.506Z,18.63
2023-02-23T16:16:02.170Z,22.73
2023-02-23T16:19:05.689Z,22.63
2023-02-23T16:22:16.343Z,21.52
2023-02-23T16:25:20.343Z,26.25
2023-02-23T16:28:24.476Z,24.33
2023-02-23T16:31:43.354Z,22.60
2023-02-23T16:34:50.842Z,18.52
2023-02-23T16:38:00.159Z,19.92
2023-02-23T16:41:04.207Z,24.48
2023-02-23T16:44:08.586Z,20.17
2023-02-23T16:47:14.156Z,15.13
2023-02-23T16:50:21.145Z,14.95
2023-02-23T16:53:26.322Z,26.38
2023-02-23T16:56:30.559Z,19.48
2023-02-23T16:59:35.126Z,18.83
2023-02-23T17:02:38.517Z,21.50
2023-02-23T17:05:42.519Z,15.57
2023-02-23T17:08:57.274Z,21.65
2023-02-23T17:12:01.523Z,19.58
2023-02-23T17:15:05.193Z,24.80
2023-02-23T17:18:08.852Z,16.25
2023-02-23T17:21:14.062Z,23.83
2023-02-23T17:24:19.095Z,21.40
2023-02-23T17:27:22.472Z,29.13
2023-02-23T17:30:26.380Z,26.65
2023-02-23T17:33:33.570Z,17.40
2023-02-23T17:36:37.036Z,14.73
2023-02-23T17:39:41.780Z,16.88
2023-02-23T17:42:45.358Z,17.08
2023-02-23T17:45:49.870Z,14.55
2023-02-23T17:48:55.180Z,21.73
2023-02-23T17:51:59.918Z,13.23
2023-02-23T17:55:04.906Z,17.35
2023-02-23T17:58:08.438Z,12.60
2023-02-23T18:01:16.279Z,16.65
2023-02-23T18:04:19.954Z,6.28
2023-02-23T18:07:23.961Z,7.55
2023-02-23T18:10:36.973Z,14.40
2023-02-23T18:13:41.072Z,8.15
2023-02-23T18:16:44.559Z,10.82
2023-02-23T18:19:48.204Z,15.50
2023-02-23T18:22:54.230Z,12.00
2023-02-23T18:26:05.266Z,15.70
2023-02-23T18:29:09.247Z,8.52
2023-02-23T18:32:12.967Z,17.98
2023-02-23T18:35:16.882Z,20.17
2023-02-23T18:38:21.204Z,30.88
2023-02-23T18:41:30.706Z,11.65
2023-02-23T18:44:35.331Z,15.85
2023-02-23T18:47:38.949Z,9.35
2023-02-23T18:50:50.011Z,10.02
2023-02-23T18:53:54.246Z,17.10
2023-02-23T18:56:59.323Z,8.82
2023-02-23T19:00:04.752Z,14.68
2023-02-23T19:03:10.004Z,18.40
2023-02-23T19:06:15.794Z,9.60
2023-02-23T19:09:23.324Z,10.65
2023-02-23T19:12:28.153Z,14.00
2023-02-23T19:15:31.867Z,7.22
2023-02-23T19:18:35.653Z,11.68
2023-02-23T19:21:39.495Z,8.15
2023-02-23T19:24:48.873Z,19.35
2023-02-23T19:27:53.896Z,7.03
2023-02-23T19:31:05.795Z,11.40
2023-02-23T19:34:09.562Z,9.48
2023-02-23T19:37:13.134Z,16.98
2023-02-23T19:40:19.617Z,11.15
2023-02-23T19:43:24.572Z,12.07
2023-02-23T19:46:28.303Z,9.65
2023-02-23T19:49:31.812Z,14.65
2023-02-23T19:52:45.268Z,4.88
2023-02-23T19:55:49.620Z,2.58
2023-02-23T19:58:54.529Z,26.63
2023-02-23T20:01:58.368Z,10.57
2023-02-23T20:05:02.086Z,13.07
2023-02-23T20:08:06.530Z,3.20
2023-02-23T20:11:10.606Z,12.30
2023-02-23T20:14:15.781Z,8.60
2023-02-23T20:17:19.251Z,8.38
2023-02-23T20:20:25.477Z,7.43
2023-02-23T20:23:29.112Z,10.75
2023-02-23T20:26:35.835Z,5.82
2023-02-23T20:29:45.325Z,3.75
2023-02-23T20:32:49.051Z,8.20
2023-02-23T20:36:05.937Z,6.35
2023-02-23T20:39:11.162Z,8.93
2023-02-23T20:42:15.378Z,16.02
2023-02-23T20:45:21.726Z,3.45
2023-02-23T20:48:26.995Z,10.30
2023-02-23T20:51:31.024Z,14.32
2023-02-23T20:54:34.472Z,5.45
2023-02-23T20:57:38.205Z,10.20
2023-02-23T21:00:43.107Z,8.70
2023-02-23T21:03:47.524Z,6.10
2023-02-23T21:06:51.022Z,5.68
2023-02-23T21:09:54.997Z,9.50
2023-02-23T21:12:58.652Z,6.50
2023-02-23T21:16:03.601Z,7.75
2023-02-23T21:19:07.726Z,10.18
2023-02-23T21:22:21.335Z,7.00
2023-02-23T21:25:25.813Z,7.57
2023-02-23T21:28:29.216Z,4.80
2023-02-23T21:31:34.083Z,10.40
2023-02-23T21:34:40.334Z,7.63
2023-02-23T21:37:44.073Z,14.05
2023-02-23T21:40:53.927Z,10.50
2023-02-23T21:43:57.544Z,9.85
2023-02-23T21:47:05.072Z,7.78
2023-02-23T21:50:15.404Z,13.20
2023-02-23T21:53:19.801Z,7.35
2023-02-23T21:56:24.323Z,9.25
2023-02-23T21:59:28.170Z,7.40
2023-02-23T22:02:33.648Z,6.80
2023-02-23T22:05:37.390Z,7.53
2023-02-23T22:08:42.951Z,7.90
2023-02-23T22:11:47.229Z,6.30
2023-02-23T22:14:50.719Z,10.48
2023-02-23T22:18:00.034Z,11.15
2023-02-23T22:21:06.436Z,3.47
2023-02-23T22:24:10.754Z,15.50
2023-02-23T22:27:15.829Z,7.70
2023-02-23T22:30:22.846Z,15.38
2023-02-23T22:33:27.943Z,7.88
2023-02-23T22:36:33.858Z,6.72
2023-02-23T22:39:41.586Z,6.53
2023-02-23T22:42:47.941Z,7.45
2023-02-23T22:45:56.890Z,7.32
2023-02-23T22:49:01.599Z,1.65
2023-02-23T22:52:05.760Z,6.78
2023-02-23T22:55:10.686Z,5.68
2023-02-23T22:58:16.827Z,6.15
2023-02-23T23:01:20.689Z,9.57
2023-02-23T23:04:26.816Z,4.72
2023-02-23T23:07:31.126Z,3.55
2023-02-23T23:10:34.562Z,5.00
2023-02-23T23:13:43.130Z,4.03
2023-02-23T23:16:49.521Z,3.78
2023-02-23T23:19:55.775Z,6.80
2023-02-23T23:23:02.619Z,7.78
2023-02-23T23:26:07.392Z,6.25
2023-02-23T23:29:26.477Z,4.15
2023-02-23T23:32:30.438Z,7.85
2023-02-23T23:35:35.667Z,6.80
2023-02-23T23:38:39.134Z,4.28
2023-02-23T23:41:43.081Z,2.97
2023-02-23T23:44:46.839Z,2.97
2023-02-23T23:47:50.252Z,1.45
2023-02-23T23:50:58.544Z,5.32
2023-02-23T23:54:06.448Z,4.13
2023-02-23T23:57:11.700Z,3.08
